sensor_id;sensor_type;location;lat;lon;timestamp;temperature;humidity
76607;DHT22;65498;50.916;4.698;2023-04-24T00:02:05;22.60;44.50
76607;DHT22;65498;50.916;4.698;2023-04-24T00:04:35;22.60;44.40
76607;DHT22;65498;50.916;4.698;2023-04-24T00:07:02;22.70;44.20
76607;DHT22;65498;50.916;4.698;2023-04-24T00:09:30;22.50;44.70
76607;DHT22;65498;50.916;4.698;2023-04-24T00:11:57;22.40;45.60
76607;DHT22;65498;50.916;4.698;2023-04-24T00:14:25;22.40;44.90
76607;DHT22;65498;50.916;4.698;2023-04-24T00:16:52;22.50;44.90
76607;DHT22;65498;50.916;4.698;2023-04-24T00:19:20;22.50;44.60
76607;DHT22;65498;50.916;4.698;2023-04-24T00:21:47;22.50;44.10
76607;DHT22;65498;50.916;4.698;2023-04-24T00:24:18;22.50;44.50
76607;DHT22;65498;50.916;4.698;2023-04-24T00:26:46;22.40;44.50
76607;DHT22;65498;50.916;4.698;2023-04-24T00:29:13;22.50;44.50
76607;DHT22;65498;50.916;4.698;2023-04-24T00:31:41;22.50;44.70
76607;DHT22;65498;50.916;4.698;2023-04-24T00:34:08;22.50;45.10
76607;DHT22;65498;50.916;4.698;2023-04-24T00:36:37;22.50;45.20
76607;DHT22;65498;50.916;4.698;2023-04-24T00:39:04;22.50;45.00
76607;DHT22;65498;50.916;4.698;2023-04-24T00:41:32;22.50;45.00
76607;DHT22;65498;50.916;4.698;2023-04-24T00:43:59;22.60;45.10
76607;DHT22;65498;50.916;4.698;2023-04-24T00:46:27;22.50;44.90
76607;DHT22;65498;50.916;4.698;2023-04-24T00:48:56;22.60;45.00
76607;DHT22;65498;50.916;4.698;2023-04-24T00:51:24;22.50;44.90
76607;DHT22;65498;50.916;4.698;2023-04-24T00:53:51;22.50;45.00
76607;DHT22;65498;50.916;4.698;2023-04-24T00:56:19;22.60;44.90
76607;DHT22;65498;50.916;4.698;2023-04-24T00:58:47;22.60;45.00
76607;DHT22;65498;50.916;4.698;2023-04-24T01:01:15;22.50;44.90
76607;DHT22;65498;50.916;4.698;2023-04-24T01:03:42;22.50;45.40
76607;DHT22;65498;50.916;4.698;2023-04-24T01:06:10;22.60;45.00
76607;DHT22;65498;50.916;4.698;2023-04-24T01:08:40;22.50;45.70
76607;DHT22;65498;50.916;4.698;2023-04-24T01:11:08;22.50;44.80
76607;DHT22;65498;50.916;4.698;2023-04-24T01:13:35;22.50;44.90
76607;DHT22;65498;50.916;4.698;2023-04-24T01:16:03;22.50;45.00
76607;DHT22;65498;50.916;4.698;2023-04-24T01:18:30;22.40;44.80
76607;DHT22;65498;50.916;4.698;2023-04-24T01:20:59;22.40;44.90
76607;DHT22;65498;50.916;4.698;2023-04-24T01:23:27;22.40;44.80
76607;DHT22;65498;50.916;4.698;2023-04-24T01:25:55;22.50;44.90
76607;DHT22;65498;50.916;4.698;2023-04-24T01:28:22;22.50;44.80
76607;DHT22;65498;50.916;4.698;2023-04-24T01:30:50;22.40;44.70
76607;DHT22;65498;50.916;4.698;2023-04-24T01:33:18;22.50;45.50
76607;DHT22;65498;50.916;4.698;2023-04-24T01:35:48;22.40;44.80
76607;DHT22;65498;50.916;4.698;2023-04-24T01:38:15;22.50;44.50
76607;DHT22;65498;50.916;4.698;2023-04-24T01:40:43;22.40;44.60
76607;DHT22;65498;50.916;4.698;2023-04-24T01:43:12;22.50;44.50
76607;DHT22;65498;50.916;4.698;2023-04-24T01:45:40;22.40;45.50
76607;DHT22;65498;50.916;4.698;2023-04-24T01:48:07;22.40;45.10
76607;DHT22;65498;50.916;4.698;2023-04-24T01:50:35;22.30;45.20
76607;DHT22;65498;50.916;4.698;2023-04-24T01:53:03;22.40;44.80
76607;DHT22;65498;50.916;4.698;2023-04-24T01:55:31;22.40;44.70
76607;DHT22;65498;50.916;4.698;2023-04-24T01:58:00;22.40;44.90
76607;DHT22;65498;50.916;4.698;2023-04-24T02:00:28;22.40;44.80
76607;DHT22;65498;50.916;4.698;2023-04-24T02:02:56;22.50;44.80
76607;DHT22;65498;50.916;4.698;2023-04-24T02:05:24;22.40;44.80
76607;DHT22;65498;50.916;4.698;2023-04-24T02:07:51;22.50;44.90
76607;DHT22;65498;50.916;4.698;2023-04-24T02:10:19;22.40;44.80
76607;DHT22;65498;50.916;4.698;2023-04-24T02:12:46;22.40;45.00
76607;DHT22;65498;50.916;4.698;2023-04-24T02:15:14;22.40;44.80
76607;DHT22;65498;50.916;4.698;2023-04-24T02:17:42;22.40;44.80
76607;DHT22;65498;50.916;4.698;2023-04-24T02:20:09;22.40;44.80
76607;DHT22;65498;50.916;4.698;2023-04-24T02:22:37;22.40;44.70
76607;DHT22;65498;50.916;4.698;2023-04-24T02:25:05;22.40;44.70
76607;DHT22;65498;50.916;4.698;2023-04-24T02:27:34;22.40;44.70
76607;DHT22;65498;50.916;4.698;2023-04-24T02:30:01;22.40;44.70
76607;DHT22;65498;50.916;4.698;2023-04-24T02:32:29;22.40;44.70
76607;DHT22;65498;50.916;4.698;2023-04-24T02:34:57;22.40;44.60
76607;DHT22;65498;50.916;4.698;2023-04-24T02:37:25;22.40;44.70
76607;DHT22;65498;50.916;4.698;2023-04-24T02:39:53;22.40;44.60
76607;DHT22;65498;50.916;4.698;2023-04-24T02:42:20;22.40;45.20
76607;DHT22;65498;50.916;4.698;2023-04-24T02:44:48;22.40;44.40
76607;DHT22;65498;50.916;4.698;2023-04-24T02:47:17;22.40;44.60
76607;DHT22;65498;50.916;4.698;2023-04-24T02:49:44;22.40;44.40
76607;DHT22;65498;50.916;4.698;2023-04-24T02:52:12;22.30;44.40
76607;DHT22;65498;50.916;4.698;2023-04-24T02:54:41;22.30;45.20
76607;DHT22;65498;50.916;4.698;2023-04-24T02:57:08;22.30;44.60
76607;DHT22;65498;50.916;4.698;2023-04-24T02:59:36;22.30;44.40
76607;DHT22;65498;50.916;4.698;2023-04-24T03:02:03;22.30;44.50
76607;DHT22;65498;50.916;4.698;2023-04-24T03:04:32;22.30;44.30
76607;DHT22;65498;50.916;4.698;2023-04-24T03:06:59;22.30;44.30
76607;DHT22;65498;50.916;4.698;2023-04-24T03:09:27;22.30;44.40
76607;DHT22;65498;50.916;4.698;2023-04-24T03:11:55;22.20;44.30
76607;DHT22;65498;50.916;4.698;2023-04-24T03:14:23;22.20;44.40
76607;DHT22;65498;50.916;4.698;2023-04-24T03:16:50;22.20;44.50
76607;DHT22;65498;50.916;4.698;2023-04-24T03:19:18;22.30;44.50
76607;DHT22;65498;50.916;4.698;2023-04-24T03:21:45;22.30;44.30
76607;DHT22;65498;50.916;4.698;2023-04-24T03:24:13;22.30;44.70
76607;DHT22;65498;50.916;4.698;2023-04-24T03:26:40;22.20;44.30
76607;DHT22;65498;50.916;4.698;2023-04-24T03:29:07;22.20;44.30
76607;DHT22;65498;50.916;4.698;2023-04-24T03:31:35;22.20;44.50
76607;DHT22;65498;50.916;4.698;2023-04-24T03:34:02;22.20;44.60
76607;DHT22;65498;50.916;4.698;2023-04-24T03:36:30;22.20;44.70
76607;DHT22;65498;50.916;4.698;2023-04-24T03:38:58;22.20;44.90
76607;DHT22;65498;50.916;4.698;2023-04-24T03:41:25;22.20;45.00
76607;DHT22;65498;50.916;4.698;2023-04-24T03:43:53;22.20;44.80
76607;DHT22;65498;50.916;4.698;2023-04-24T03:46:20;22.30;44.60
76607;DHT22;65498;50.916;4.698;2023-04-24T03:48:48;22.30;44.40
76607;DHT22;65498;50.916;4.698;2023-04-24T03:51:16;22.30;44.50
76607;DHT22;65498;50.916;4.698;2023-04-24T03:53:43;22.30;44.70
76607;DHT22;65498;50.916;4.698;2023-04-24T03:56:11;22.30;44.60
76607;DHT22;65498;50.916;4.698;2023-04-24T03:58:38;22.30;44.70
76607;DHT22;65498;50.916;4.698;2023-04-24T04:01:06;22.30;44.80
76607;DHT22;65498;50.916;4.698;2023-04-24T04:03:34;22.30;44.80
76607;DHT22;65498;50.916;4.698;2023-04-24T04:06:01;22.40;44.80
76607;DHT22;65498;50.916;4.698;2023-04-24T04:08:29;22.40;44.70
76607;DHT22;65498;50.916;4.698;2023-04-24T04:10:56;22.30;44.70
76607;DHT22;65498;50.916;4.698;2023-04-24T04:13:24;22.40;44.70
76607;DHT22;65498;50.916;4.698;2023-04-24T04:15:51;22.40;44.80
76607;DHT22;65498;50.916;4.698;2023-04-24T04:18:19;22.30;44.80
76607;DHT22;65498;50.916;4.698;2023-04-24T04:20:46;22.30;44.90
76607;DHT22;65498;50.916;4.698;2023-04-24T04:23:14;22.30;44.90
76607;DHT22;65498;50.916;4.698;2023-04-24T04:25:41;22.30;44.60
76607;DHT22;65498;50.916;4.698;2023-04-24T04:28:09;22.30;44.70
76607;DHT22;65498;50.916;4.698;2023-04-24T04:30:36;22.30;44.80
76607;DHT22;65498;50.916;4.698;2023-04-24T04:33:04;22.30;44.80
76607;DHT22;65498;50.916;4.698;2023-04-24T04:35:32;22.30;44.90
76607;DHT22;65498;50.916;4.698;2023-04-24T04:37:59;22.30;44.60
76607;DHT22;65498;50.916;4.698;2023-04-24T04:40:27;22.30;44.70
76607;DHT22;65498;50.916;4.698;2023-04-24T04:42:55;22.30;44.80
76607;DHT22;65498;50.916;4.698;2023-04-24T04:45:22;22.30;44.80
76607;DHT22;65498;50.916;4.698;2023-04-24T04:47:50;22.30;45.00
76607;DHT22;65498;50.916;4.698;2023-04-24T04:50:18;22.30;45.00
76607;DHT22;65498;50.916;4.698;2023-04-24T04:52:46;22.30;45.10
76607;DHT22;65498;50.916;4.698;2023-04-24T04:55:13;22.20;45.10
76607;DHT22;65498;50.916;4.698;2023-04-24T04:57:41;22.30;45.10
76607;DHT22;65498;50.916;4.698;2023-04-24T05:00:09;22.30;45.20
76607;DHT22;65498;50.916;4.698;2023-04-24T05:02:38;22.30;45.10
76607;DHT22;65498;50.916;4.698;2023-04-24T05:05:06;22.20;45.10
76607;DHT22;65498;50.916;4.698;2023-04-24T05:07:35;22.20;45.10
76607;DHT22;65498;50.916;4.698;2023-04-24T05:10:03;22.20;45.20
76607;DHT22;65498;50.916;4.698;2023-04-24T05:12:31;22.30;45.10
76607;DHT22;65498;50.916;4.698;2023-04-24T05:14:58;22.20;45.10
76607;DHT22;65498;50.916;4.698;2023-04-24T05:17:26;22.20;45.50
76607;DHT22;65498;50.916;4.698;2023-04-24T05:19:53;22.20;45.10
76607;DHT22;65498;50.916;4.698;2023-04-24T05:22:21;22.20;45.10
76607;DHT22;65498;50.916;4.698;2023-04-24T05:24:48;22.20;45.60
76607;DHT22;65498;50.916;4.698;2023-04-24T05:27:16;22.10;45.30
76607;DHT22;65498;50.916;4.698;2023-04-24T05:29:44;22.10;45.40
76607;DHT22;65498;50.916;4.698;2023-04-24T05:32:11;22.10;45.80
76607;DHT22;65498;50.916;4.698;2023-04-24T05:34:39;22.10;45.50
76607;DHT22;65498;50.916;4.698;2023-04-24T05:37:06;22.10;45.60
76607;DHT22;65498;50.916;4.698;2023-04-24T05:39:36;22.20;45.50
76607;DHT22;65498;50.916;4.698;2023-04-24T05:42:04;22.30;45.40
76607;DHT22;65498;50.916;4.698;2023-04-24T05:44:32;22.30;45.40
76607;DHT22;65498;50.916;4.698;2023-04-24T05:46:59;22.20;45.40
76607;DHT22;65498;50.916;4.698;2023-04-24T05:49:28;22.30;45.40
76607;DHT22;65498;50.916;4.698;2023-04-24T05:51:56;22.20;45.60
76607;DHT22;65498;50.916;4.698;2023-04-24T05:54:24;22.20;45.60
76607;DHT22;65498;50.916;4.698;2023-04-24T05:56:51;22.20;45.50
76607;DHT22;65498;50.916;4.698;2023-04-24T05:59:20;22.20;45.50
76607;DHT22;65498;50.916;4.698;2023-04-24T06:01:48;22.20;45.30
76607;DHT22;65498;50.916;4.698;2023-04-24T06:04:16;22.20;45.40
76607;DHT22;65498;50.916;4.698;2023-04-24T06:06:43;22.30;45.50
76607;DHT22;65498;50.916;4.698;2023-04-24T06:09:11;22.30;45.30
76607;DHT22;65498;50.916;4.698;2023-04-24T06:11:38;22.20;45.90
76607;DHT22;65498;50.916;4.698;2023-04-24T06:14:06;22.20;45.10
76607;DHT22;65498;50.916;4.698;2023-04-24T06:16:33;22.20;45.10
76607;DHT22;65498;50.916;4.698;2023-04-24T06:19:01;22.20;45.30
76607;DHT22;65498;50.916;4.698;2023-04-24T06:21:29;22.20;45.20
76607;DHT22;65498;50.916;4.698;2023-04-24T06:23:57;22.20;45.30
76607;DHT22;65498;50.916;4.698;2023-04-24T06:26:25;22.20;45.40
76607;DHT22;65498;50.916;4.698;2023-04-24T06:28:53;22.20;45.10
76607;DHT22;65498;50.916;4.698;2023-04-24T06:31:21;22.10;44.50
76607;DHT22;65498;50.916;4.698;2023-04-24T06:33:49;22.10;45.30
76607;DHT22;65498;50.916;4.698;2023-04-24T06:36:17;22.10;45.30
76607;DHT22;65498;50.916;4.698;2023-04-24T06:38:44;22.10;45.20
76607;DHT22;65498;50.916;4.698;2023-04-24T06:41:12;22.10;45.10
76607;DHT22;65498;50.916;4.698;2023-04-24T06:43:39;22.10;45.20
76607;DHT22;65498;50.916;4.698;2023-04-24T06:46:08;22.10;45.20
76607;DHT22;65498;50.916;4.698;2023-04-24T06:48:35;22.10;45.30
76607;DHT22;65498;50.916;4.698;2023-04-24T06:51:03;22.10;45.30
76607;DHT22;65498;50.916;4.698;2023-04-24T06:53:30;22.20;45.20
76607;DHT22;65498;50.916;4.698;2023-04-24T06:55:58;22.30;45.40
76607;DHT22;65498;50.916;4.698;2023-04-24T06:58:25;22.30;45.40
76607;DHT22;65498;50.916;4.698;2023-04-24T07:00:53;22.30;45.20
76607;DHT22;65498;50.916;4.698;2023-04-24T07:03:20;22.30;45.20
76607;DHT22;65498;50.916;4.698;2023-04-24T07:05:48;22.30;45.20
76607;DHT22;65498;50.916;4.698;2023-04-24T07:08:16;22.20;45.50
76607;DHT22;65498;50.916;4.698;2023-04-24T07:10:44;22.10;45.50
76607;DHT22;65498;50.916;4.698;2023-04-24T07:13:12;22.10;45.60
76607;DHT22;65498;50.916;4.698;2023-04-24T07:15:39;22.10;45.50
76607;DHT22;65498;50.916;4.698;2023-04-24T07:18:07;22.10;45.60
76607;DHT22;65498;50.916;4.698;2023-04-24T07:20:35;22.10;45.60
76607;DHT22;65498;50.916;4.698;2023-04-24T07:23:03;22.20;45.70
76607;DHT22;65498;50.916;4.698;2023-04-24T07:25:30;22.10;45.90
76607;DHT22;65498;50.916;4.698;2023-04-24T07:27:58;22.10;46.00
76607;DHT22;65498;50.916;4.698;2023-04-24T07:30:26;22.10;46.00
76607;DHT22;65498;50.916;4.698;2023-04-24T07:32:55;22.20;46.10
76607;DHT22;65498;50.916;4.698;2023-04-24T07:35:23;22.10;46.00
76607;DHT22;65498;50.916;4.698;2023-04-24T07:37:53;22.10;45.90
76607;DHT22;65498;50.916;4.698;2023-04-24T07:40:21;22.20;46.00
76607;DHT22;65498;50.916;4.698;2023-04-24T07:42:49;22.10;45.90
76607;DHT22;65498;50.916;4.698;2023-04-24T07:45:17;22.20;45.90
76607;DHT22;65498;50.916;4.698;2023-04-24T07:47:45;22.20;45.80
76607;DHT22;65498;50.916;4.698;2023-04-24T07:50:12;22.20;46.00
76607;DHT22;65498;50.916;4.698;2023-04-24T07:52:41;22.30;45.80
76607;DHT22;65498;50.916;4.698;2023-04-24T07:55:08;22.20;46.10
76607;DHT22;65498;50.916;4.698;2023-04-24T07:57:36;22.30;46.60
76607;DHT22;65498;50.916;4.698;2023-04-24T08:00:05;22.30;45.90
76607;DHT22;65498;50.916;4.698;2023-04-24T08:02:32;22.30;45.90
76607;DHT22;65498;50.916;4.698;2023-04-24T08:05:00;22.30;45.80
76607;DHT22;65498;50.916;4.698;2023-04-24T08:07:29;22.30;45.90
76607;DHT22;65498;50.916;4.698;2023-04-24T08:09:57;22.30;45.40
76607;DHT22;65498;50.916;4.698;2023-04-24T08:12:25;22.30;45.20
76607;DHT22;65498;50.916;4.698;2023-04-24T08:14:53;22.30;45.30
76607;DHT22;65498;50.916;4.698;2023-04-24T08:17:20;22.40;45.90
76607;DHT22;65498;50.916;4.698;2023-04-24T08:19:48;22.40;44.90
76607;DHT22;65498;50.916;4.698;2023-04-24T08:22:17;22.40;45.00
76607;DHT22;65498;50.916;4.698;2023-04-24T08:24:45;22.40;45.40
76607;DHT22;65498;50.916;4.698;2023-04-24T08:27:12;22.40;45.10
76607;DHT22;65498;50.916;4.698;2023-04-24T08:29:40;22.40;45.00
76607;DHT22;65498;50.916;4.698;2023-04-24T08:32:07;22.40;45.10
76607;DHT22;65498;50.916;4.698;2023-04-24T08:34:35;22.50;45.00
76607;DHT22;65498;50.916;4.698;2023-04-24T08:37:03;22.50;44.90
76607;DHT22;65498;50.916;4.698;2023-04-24T08:39:30;22.50;45.00
76607;DHT22;65498;50.916;4.698;2023-04-24T08:41:58;22.40;45.30
76607;DHT22;65498;50.916;4.698;2023-04-24T08:44:28;22.40;45.40
76607;DHT22;65498;50.916;4.698;2023-04-24T08:46:56;22.30;45.60
76607;DHT22;65498;50.916;4.698;2023-04-24T08:49:24;22.40;45.80
76607;DHT22;65498;50.916;4.698;2023-04-24T08:51:53;22.40;45.60
76607;DHT22;65498;50.916;4.698;2023-04-24T08:54:21;22.40;45.70
76607;DHT22;65498;50.916;4.698;2023-04-24T08:56:49;22.40;46.00
76607;DHT22;65498;50.916;4.698;2023-04-24T08:59:18;22.40;46.00
76607;DHT22;65498;50.916;4.698;2023-04-24T09:01:46;22.50;46.00
76607;DHT22;65498;50.916;4.698;2023-04-24T09:04:16;22.40;46.60
76607;DHT22;65498;50.916;4.698;2023-04-24T09:06:46;22.40;46.20
76607;DHT22;65498;50.916;4.698;2023-04-24T09:09:14;22.40;46.30
76607;DHT22;65498;50.916;4.698;2023-04-24T09:11:43;22.40;46.50
76607;DHT22;65498;50.916;4.698;2023-04-24T09:14:10;22.40;46.70
76607;DHT22;65498;50.916;4.698;2023-04-24T09:16:38;22.40;46.60
76607;DHT22;65498;50.916;4.698;2023-04-24T09:19:05;22.30;46.70
76607;DHT22;65498;50.916;4.698;2023-04-24T09:21:34;22.30;47.60
76607;DHT22;65498;50.916;4.698;2023-04-24T09:24:04;22.20;47.00
76607;DHT22;65498;50.916;4.698;2023-04-24T09:26:35;22.20;47.00
76607;DHT22;65498;50.916;4.698;2023-04-24T09:29:03;22.20;47.10
76607;DHT22;65498;50.916;4.698;2023-04-24T09:31:31;22.20;47.10
76607;DHT22;65498;50.916;4.698;2023-04-24T09:34:01;22.20;46.60
76607;DHT22;65498;50.916;4.698;2023-04-24T09:36:37;22.10;47.10
76607;DHT22;65498;50.916;4.698;2023-04-24T09:39:12;22.20;47.10
76607;DHT22;65498;50.916;4.698;2023-04-24T09:44:20;22.30;46.90
76607;DHT22;65498;50.916;4.698;2023-04-24T09:46:55;22.40;46.60
76607;DHT22;65498;50.916;4.698;2023-04-24T09:49:30;22.40;46.70
76607;DHT22;65498;50.916;4.698;2023-04-24T09:52:04;22.40;46.80
76607;DHT22;65498;50.916;4.698;2023-04-24T09:54:32;22.30;46.90
76607;DHT22;65498;50.916;4.698;2023-04-24T09:57:00;22.20;47.00
76607;DHT22;65498;50.916;4.698;2023-04-24T09:59:29;22.30;47.00
76607;DHT22;65498;50.916;4.698;2023-04-24T10:01:57;22.30;46.80
76607;DHT22;65498;50.916;4.698;2023-04-24T10:04:27;22.40;46.70
76607;DHT22;65498;50.916;4.698;2023-04-24T10:06:56;22.30;46.60
76607;DHT22;65498;50.916;4.698;2023-04-24T10:09:26;22.40;46.70
76607;DHT22;65498;50.916;4.698;2023-04-24T10:11:54;22.40;46.60
76607;DHT22;65498;50.916;4.698;2023-04-24T10:14:25;22.40;46.50
76607;DHT22;65498;50.916;4.698;2023-04-24T10:16:55;22.40;46.50
76607;DHT22;65498;50.916;4.698;2023-04-24T10:19:26;22.50;46.50
76607;DHT22;65498;50.916;4.698;2023-04-24T10:21:54;22.50;47.20
76607;DHT22;65498;50.916;4.698;2023-04-24T10:24:22;22.40;46.60
76607;DHT22;65498;50.916;4.698;2023-04-24T10:26:49;22.40;46.20
76607;DHT22;65498;50.916;4.698;2023-04-24T10:29:18;22.50;46.30
76607;DHT22;65498;50.916;4.698;2023-04-24T10:31:47;22.50;46.20
76607;DHT22;65498;50.916;4.698;2023-04-24T10:34:17;22.50;46.10
76607;DHT22;65498;50.916;4.698;2023-04-24T10:36:58;22.40;45.80
76607;DHT22;65498;50.916;4.698;2023-04-24T10:39:19;22.40;46.00
76607;DHT22;65498;50.916;4.698;2023-04-24T10:41:49;22.50;45.90
76607;DHT22;65498;50.916;4.698;2023-04-24T10:44:17;22.40;45.70
76607;DHT22;65498;50.916;4.698;2023-04-24T10:46:46;22.50;45.70
76607;DHT22;65498;50.916;4.698;2023-04-24T10:49:14;22.40;45.50
76607;DHT22;65498;50.916;4.698;2023-04-24T10:51:52;22.50;45.60
76607;DHT22;65498;50.916;4.698;2023-04-24T10:54:40;22.50;45.60
76607;DHT22;65498;50.916;4.698;2023-04-24T11:00:10;22.50;45.50
76607;DHT22;65498;50.916;4.698;2023-04-24T11:02:35;22.50;45.40
76607;DHT22;65498;50.916;4.698;2023-04-24T11:04:52;22.50;45.30
76607;DHT22;65498;50.916;4.698;2023-04-24T11:07:21;22.50;45.40
76607;DHT22;65498;50.916;4.698;2023-04-24T11:09:55;22.50;45.50
76607;DHT22;65498;50.916;4.698;2023-04-24T11:12:19;22.50;45.30
76607;DHT22;65498;50.916;4.698;2023-04-24T11:20:08;22.50;45.30
76607;DHT22;65498;50.916;4.698;2023-04-24T11:22:39;22.40;45.30
76607;DHT22;65498;50.916;4.698;2023-04-24T11:25:09;22.40;45.40
76607;DHT22;65498;50.916;4.698;2023-04-24T11:27:43;22.40;45.50
76607;DHT22;65498;50.916;4.698;2023-04-24T11:30:17;22.20;46.00
76607;DHT22;65498;50.916;4.698;2023-04-24T11:32:43;22.10;45.80
76607;DHT22;65498;50.916;4.698;2023-04-24T11:35:18;22.20;45.70
76607;DHT22;65498;50.916;4.698;2023-04-24T11:37:48;22.20;45.60
76607;DHT22;65498;50.916;4.698;2023-04-24T11:40:18;22.40;45.30
76607;DHT22;65498;50.916;4.698;2023-04-24T11:42:53;22.40;45.70
76607;DHT22;65498;50.916;4.698;2023-04-24T11:45:24;22.40;45.10
76607;DHT22;65498;50.916;4.698;2023-04-24T11:47:52;22.30;45.10
76607;DHT22;65498;50.916;4.698;2023-04-24T11:50:22;22.30;45.10
76607;DHT22;65498;50.916;4.698;2023-04-24T11:52:52;22.30;45.20
76607;DHT22;65498;50.916;4.698;2023-04-24T11:57:55;22.30;45.20
76607;DHT22;65498;50.916;4.698;2023-04-24T12:00:33;22.30;45.10
76607;DHT22;65498;50.916;4.698;2023-04-24T12:03:10;22.20;45.10
76607;DHT22;65498;50.916;4.698;2023-04-24T12:05:39;22.20;45.10
76607;DHT22;65498;50.916;4.698;2023-04-24T12:08:06;22.20;45.00
76607;DHT22;65498;50.916;4.698;2023-04-24T12:10:34;22.30;45.10
76607;DHT22;65498;50.916;4.698;2023-04-24T12:13:02;22.30;45.10
76607;DHT22;65498;50.916;4.698;2023-04-24T12:15:30;22.30;45.10
76607;DHT22;65498;50.916;4.698;2023-04-24T12:17:57;22.30;45.00
76607;DHT22;65498;50.916;4.698;2023-04-24T12:20:27;22.20;44.40
76607;DHT22;65498;50.916;4.698;2023-04-24T12:22:57;22.20;44.90
76607;DHT22;65498;50.916;4.698;2023-04-24T12:25:29;22.20;44.90
76607;DHT22;65498;50.916;4.698;2023-04-24T12:30:41;22.30;45.00
76607;DHT22;65498;50.916;4.698;2023-04-24T12:33:10;22.20;44.90
76607;DHT22;65498;50.916;4.698;2023-04-24T12:35:40;22.30;44.80
76607;DHT22;65498;50.916;4.698;2023-04-24T12:38:07;22.40;44.60
76607;DHT22;65498;50.916;4.698;2023-04-24T12:40:35;22.40;44.50
76607;DHT22;65498;50.916;4.698;2023-04-24T12:45:42;22.40;44.60
76607;DHT22;65498;50.916;4.698;2023-04-24T12:48:11;22.40;44.60
76607;DHT22;65498;50.916;4.698;2023-04-24T12:50:40;22.40;44.60
76607;DHT22;65498;50.916;4.698;2023-04-24T12:53:09;22.40;44.40
76607;DHT22;65498;50.916;4.698;2023-04-24T12:55:37;22.40;44.40
76607;DHT22;65498;50.916;4.698;2023-04-24T12:58:04;22.40;44.40
76607;DHT22;65498;50.916;4.698;2023-04-24T13:00:32;22.50;44.30
76607;DHT22;65498;50.916;4.698;2023-04-24T13:03:01;22.40;44.40
76607;DHT22;65498;50.916;4.698;2023-04-24T13:05:28;22.30;44.70
76607;DHT22;65498;50.916;4.698;2023-04-24T13:07:57;22.30;44.60
76607;DHT22;65498;50.916;4.698;2023-04-24T13:10:24;22.40;44.60
76607;DHT22;65498;50.916;4.698;2023-04-24T13:12:52;22.50;44.60
76607;DHT22;65498;50.916;4.698;2023-04-24T13:15:19;22.40;44.60
76607;DHT22;65498;50.916;4.698;2023-04-24T13:17:47;22.50;44.70
76607;DHT22;65498;50.916;4.698;2023-04-24T13:20:14;22.50;44.80
76607;DHT22;65498;50.916;4.698;2023-04-24T13:22:42;22.40;45.10
76607;DHT22;65498;50.916;4.698;2023-04-24T13:25:10;22.50;45.20
76607;DHT22;65498;50.916;4.698;2023-04-24T13:27:40;22.50;44.90
76607;DHT22;65498;50.916;4.698;2023-04-24T13:30:08;22.60;45.00
76607;DHT22;65498;50.916;4.698;2023-04-24T13:32:36;22.40;45.40
76607;DHT22;65498;50.916;4.698;2023-04-24T13:35:05;22.50;45.50
76607;DHT22;65498;50.916;4.698;2023-04-24T13:37:32;22.40;45.80
76607;DHT22;65498;50.916;4.698;2023-04-24T13:40:00;22.30;46.00
76607;DHT22;65498;50.916;4.698;2023-04-24T13:42:27;22.30;46.10
76607;DHT22;65498;50.916;4.698;2023-04-24T13:44:55;22.30;46.40
76607;DHT22;65498;50.916;4.698;2023-04-24T13:47:22;22.20;46.60
76607;DHT22;65498;50.916;4.698;2023-04-24T13:49:50;22.30;46.40
76607;DHT22;65498;50.916;4.698;2023-04-24T13:52:19;22.30;46.30
76607;DHT22;65498;50.916;4.698;2023-04-24T13:54:46;22.40;46.10
76607;DHT22;65498;50.916;4.698;2023-04-24T13:57:14;22.50;45.80
76607;DHT22;65498;50.916;4.698;2023-04-24T13:59:42;22.50;45.80
76607;DHT22;65498;50.916;4.698;2023-04-24T14:02:10;22.50;46.00
76607;DHT22;65498;50.916;4.698;2023-04-24T14:04:38;22.50;45.90
76607;DHT22;65498;50.916;4.698;2023-04-24T14:07:05;22.50;45.90
76607;DHT22;65498;50.916;4.698;2023-04-24T14:09:34;22.50;46.10
76607;DHT22;65498;50.916;4.698;2023-04-24T14:12:02;22.50;46.30
76607;DHT22;65498;50.916;4.698;2023-04-24T14:14:30;22.60;46.30
76607;DHT22;65498;50.916;4.698;2023-04-24T14:16:58;22.50;46.40
76607;DHT22;65498;50.916;4.698;2023-04-24T14:19:25;22.50;46.50
76607;DHT22;65498;50.916;4.698;2023-04-24T14:21:53;22.50;46.80
76607;DHT22;65498;50.916;4.698;2023-04-24T14:24:22;22.50;46.50
76607;DHT22;65498;50.916;4.698;2023-04-24T14:26:50;22.50;46.50
76607;DHT22;65498;50.916;4.698;2023-04-24T14:29:17;22.60;46.50
76607;DHT22;65498;50.916;4.698;2023-04-24T14:31:46;22.50;46.70
76607;DHT22;65498;50.916;4.698;2023-04-24T14:34:14;22.50;47.10
76607;DHT22;65498;50.916;4.698;2023-04-24T14:36:43;22.50;47.00
76607;DHT22;65498;50.916;4.698;2023-04-24T14:39:11;22.50;46.80
76607;DHT22;65498;50.916;4.698;2023-04-24T14:41:38;22.50;46.70
76607;DHT22;65498;50.916;4.698;2023-04-24T14:44:06;22.50;46.80
76607;DHT22;65498;50.916;4.698;2023-04-24T14:46:34;22.50;46.70
76607;DHT22;65498;50.916;4.698;2023-04-24T14:49:01;22.50;47.10
76607;DHT22;65498;50.916;4.698;2023-04-24T14:51:29;22.40;47.20
76607;DHT22;65498;50.916;4.698;2023-04-24T14:53:57;22.30;47.50
76607;DHT22;65498;50.916;4.698;2023-04-24T14:56:25;22.30;48.30
76607;DHT22;65498;50.916;4.698;2023-04-24T14:58:53;22.30;47.80
76607;DHT22;65498;50.916;4.698;2023-04-24T15:01:20;22.30;48.20
76607;DHT22;65498;50.916;4.698;2023-04-24T15:03:48;22.40;47.70
76607;DHT22;65498;50.916;4.698;2023-04-24T15:06:16;22.40;47.60
76607;DHT22;65498;50.916;4.698;2023-04-24T15:08:43;22.40;47.40
76607;DHT22;65498;50.916;4.698;2023-04-24T15:11:11;22.40;47.40
76607;DHT22;65498;50.916;4.698;2023-04-24T15:13:39;22.50;47.30
76607;DHT22;65498;50.916;4.698;2023-04-24T15:16:06;22.40;47.20
76607;DHT22;65498;50.916;4.698;2023-04-24T15:18:34;22.50;47.20
76607;DHT22;65498;50.916;4.698;2023-04-24T15:21:02;22.60;46.80
76607;DHT22;65498;50.916;4.698;2023-04-24T15:23:30;22.70;47.00
76607;DHT22;65498;50.916;4.698;2023-04-24T15:25:57;22.70;46.50
76607;DHT22;65498;50.916;4.698;2023-04-24T15:28:25;22.60;46.50
76607;DHT22;65498;50.916;4.698;2023-04-24T15:30:53;22.50;46.80
76607;DHT22;65498;50.916;4.698;2023-04-24T15:33:20;22.50;46.70
76607;DHT22;65498;50.916;4.698;2023-04-24T15:35:48;22.50;46.70
76607;DHT22;65498;50.916;4.698;2023-04-24T15:38:16;22.60;46.60
76607;DHT22;65498;50.916;4.698;2023-04-24T15:40:44;22.60;46.40
76607;DHT22;65498;50.916;4.698;2023-04-24T15:43:11;22.60;46.50
76607;DHT22;65498;50.916;4.698;2023-04-24T15:45:39;22.60;46.60
76607;DHT22;65498;50.916;4.698;2023-04-24T15:48:06;22.50;46.50
76607;DHT22;65498;50.916;4.698;2023-04-24T15:50:34;22.50;46.50
76607;DHT22;65498;50.916;4.698;2023-04-24T15:53:02;22.60;46.40
76607;DHT22;65498;50.916;4.698;2023-04-24T15:55:30;22.50;46.50